createdAt,value
2018-09-11T00:00:03.390Z,59.43
2018-09-11T00:01:03.230Z,59.41
2018-09-11T00:02:03.225Z,59.43
2018-09-11T00:03:03.414Z,59.4
2018-09-11T00:04:03.460Z,59.38
2018-09-11T00:05:03.302Z,59.39
2018-09-11T00:06:03.633Z,59.43
2018-09-11T00:07:03.650Z,59.42
2018-09-11T00:08:03.310Z,59.43
2018-09-11T00:09:03.398Z,59.4
2018-09-11T00:10:03.586Z,59.41
2018-09-11T00:11:03.332Z,59.42
2018-09-11T00:12:03.414Z,59.4
2018-09-11T00:13:03.614Z,59.39
2018-09-11T00:14:03.546Z,59.45
2018-09-11T00:15:03.364Z,59.39
2018-09-11T00:16:03.363Z,59.45
2018-09-11T00:17:03.397Z,59.39
2018-09-11T00:18:03.330Z,59.42
2018-09-11T00:19:03.501Z,59.39
2018-09-11T00:20:03.372Z,59.42
2018-09-11T00:21:03.547Z,59.4
2018-09-11T00:22:03.540Z,59.41
2018-09-11T00:23:03.516Z,59.4
2018-09-11T00:24:03.289Z,59.39
2018-09-11T00:25:03.336Z,59.42
2018-09-11T00:26:03.290Z,59.4
2018-09-11T00:27:03.254Z,59.4
2018-09-11T00:28:03.430Z,59.43
2018-09-11T00:29:03.403Z,59.42
2018-09-11T00:30:03.414Z,59.42
2018-09-11T00:31:03.465Z,59.41
2018-09-11T00:32:03.346Z,59.41
2018-09-11T00:33:03.632Z,59.4
2018-09-11T00:34:03.569Z,59.39
2018-09-11T00:35:03.927Z,59.44
2018-09-11T00:36:03.507Z,59.41
2018-09-11T00:37:03.269Z,59.38
2018-09-11T00:38:03.444Z,59.4
2018-09-11T00:39:03.522Z,59.39
2018-09-11T00:40:03.331Z,59.39
2018-09-11T00:41:03.406Z,59.39
2018-09-11T00:42:03.421Z,59.39
2018-09-11T00:43:03.349Z,59.4
2018-09-11T00:44:03.229Z,59.39
2018-09-11T00:45:03.277Z,59.37
2018-09-11T00:46:03.735Z,59.39
2018-09-11T00:47:03.544Z,59.38
2018-09-11T00:48:03.338Z,59.39
2018-09-11T00:49:03.324Z,59.39
2018-09-11T00:50:03.657Z,59.39
2018-09-11T00:51:03.328Z,59.42
2018-09-11T00:52:03.476Z,59.42
2018-09-11T00:53:03.398Z,59.41
2018-09-11T00:54:03.392Z,59.4
2018-09-11T00:55:03.317Z,59.44
2018-09-11T00:56:03.488Z,59.4
2018-09-11T00:57:03.442Z,59.34
2018-09-11T00:58:03.503Z,59.43
2018-09-11T00:59:03.386Z,59.4
2018-09-11T01:00:03.469Z,59.38
2018-09-11T01:01:03.442Z,59.42
2018-09-11T01:02:03.234Z,59.38
2018-09-11T01:03:03.340Z,59.43
2018-09-11T01:04:03.385Z,59.42
2018-09-11T01:05:03.268Z,59.38
2018-09-11T01:06:03.382Z,59.42
2018-09-11T01:07:03.612Z,59.37
2018-09-11T01:08:03.384Z,59.38
2018-09-11T01:09:03.411Z,59.4
2018-09-11T01:10:03.963Z,59.45
2018-09-11T01:11:03.261Z,59.4
2018-09-11T01:12:03.351Z,59.42
2018-09-11T01:13:03.279Z,59.4
2018-09-11T01:14:03.244Z,59.39
2018-09-11T01:15:03.261Z,59.38
2018-09-11T01:16:03.245Z,59.42
2018-09-11T01:17:03.233Z,59.4
2018-09-11T01:18:03.581Z,59.4
2018-09-11T01:19:03.510Z,59.38
2018-09-11T01:20:03.230Z,59.41
2018-09-11T01:21:03.563Z,59.4
2018-09-11T01:22:03.305Z,59.4
2018-09-11T01:23:03.496Z,59.37
2018-09-11T01:24:03.467Z,59.37
2018-09-11T01:25:03.710Z,59.42
2018-09-11T01:26:03.442Z,59.37
2018-09-11T01:27:03.807Z,59.39
2018-09-11T01:28:03.327Z,59.43
2018-09-11T01:29:03.427Z,59.42
2018-09-11T01:30:03.555Z,59.43
2018-09-11T01:31:03.478Z,59.39
2018-09-11T01:32:03.458Z,59.4
2018-09-11T01:33:03.427Z,59.39
2018-09-11T01:34:03.287Z,59.41
2018-09-11T01:35:03.403Z,59.38
2018-09-11T01:36:03.301Z,59.37
2018-09-11T01:37:03.357Z,59.39
2018-09-11T01:38:03.257Z,59.38
2018-09-11T01:39:03.289Z,59.37
2018-09-11T01:40:03.500Z,59.39
2018-09-11T01:41:03.386Z,59.38
2018-09-11T01:42:03.341Z,59.37
2018-09-11T01:43:03.340Z,59.4
2018-09-11T01:44:03.236Z,59.38
2018-09-11T01:45:03.395Z,59.38
2018-09-11T01:46:03.295Z,59.38
2018-09-11T01:47:03.481Z,59.41
2018-09-11T01:48:03.416Z,59.4
2018-09-11T01:49:03.231Z,59.4
2018-09-11T01:50:03.450Z,59.42
2018-09-11T01:51:03.255Z,59.39
2018-09-11T01:52:03.399Z,59.4
2018-09-11T01:53:03.257Z,59.39
2018-09-11T01:54:03.448Z,59.37
2018-09-11T01:55:03.254Z,59.41
2018-09-11T01:56:03.412Z,59.37
2018-09-11T01:57:03.348Z,59.37
2018-09-11T01:58:03.245Z,59.38
2018-09-11T01:59:03.389Z,59.37
2018-09-11T02:00:03.376Z,59.38
2018-09-11T02:01:03.438Z,59.39
2018-09-11T02:02:03.506Z,59.37
2018-09-11T02:03:03.375Z,59.38
2018-09-11T02:04:03.238Z,59.39
2018-09-11T02:05:03.383Z,59.37
2018-09-11T02:06:03.405Z,59.41
2018-09-11T02:07:03.435Z,59.36
2018-09-11T02:08:03.487Z,59.36
2018-09-11T02:09:03.307Z,59.37
2018-09-11T02:10:03.410Z,59.35
2018-09-11T02:11:03.495Z,59.38
2018-09-11T02:12:03.184Z,59.37
2018-09-11T02:13:03.388Z,59.41
2018-09-11T02:14:03.410Z,59.34
2018-09-11T02:15:03.446Z,59.38
2018-09-11T02:16:03.306Z,59.38
2018-09-11T02:17:03.240Z,59.41
2018-09-11T02:18:03.190Z,59.36
2018-09-11T02:19:03.223Z,59.35
2018-09-11T02:20:03.293Z,59.34
2018-09-11T02:21:03.578Z,59.39
2018-09-11T02:22:03.513Z,59.35
2018-09-11T02:23:03.282Z,59.37
2018-09-11T02:24:03.496Z,59.35
2018-09-11T02:25:03.337Z,59.34
2018-09-11T02:26:03.465Z,59.34
2018-09-11T02:27:03.424Z,59.33
2018-09-11T02:28:03.448Z,59.34
2018-09-11T02:29:03.330Z,59.36
2018-09-11T02:30:03.497Z,59.33
2018-09-11T02:31:03.293Z,59.34
2018-09-11T02:32:03.252Z,59.34
2018-09-11T02:33:03.375Z,59.38
2018-09-11T02:34:03.420Z,59.37
2018-09-11T02:35:03.418Z,59.36
2018-09-11T02:36:03.445Z,59.33
2018-09-11T02:37:03.417Z,59.37
2018-09-11T02:38:03.505Z,59.33
2018-09-11T02:39:03.581Z,59.36
2018-09-11T02:40:03.343Z,59.35
2018-09-11T02:41:03.352Z,59.39
2018-09-11T02:42:03.345Z,59.38
2018-09-11T02:43:03.450Z,59.37
2018-09-11T02:44:03.414Z,59.39
2018-09-11T02:45:03.400Z,59.37
2018-09-11T02:46:03.381Z,59.36
2018-09-11T02:47:03.327Z,59.37
2018-09-11T02:48:03.452Z,59.38
2018-09-11T02:49:03.423Z,59.37
2018-09-11T02:50:03.404Z,59.33
2018-09-11T02:51:03.401Z,59.35
2018-09-11T02:52:03.444Z,59.35
2018-09-11T02:53:03.368Z,59.37
2018-09-11T02:54:03.640Z,59.34
2018-09-11T02:55:03.418Z,59.4
2018-09-11T02:56:03.452Z,59.4
2018-09-11T02:57:03.449Z,59.34
2018-09-11T02:58:03.395Z,59.4
2018-09-11T02:59:03.527Z,59.39
2018-09-11T03:00:03.963Z,59.39
2018-09-11T03:01:03.324Z,59.38
2018-09-11T03:02:03.648Z,59.39
2018-09-11T03:03:03.444Z,59.32
2018-09-11T03:04:03.513Z,59.38
2018-09-11T03:05:03.290Z,59.39
2018-09-11T03:06:03.123Z,59.39
2018-09-11T03:07:03.609Z,59.38
2018-09-11T03:08:03.293Z,59.37
2018-09-11T03:09:03.394Z,59.38
2018-09-11T03:10:03.355Z,59.35
2018-09-11T03:11:03.363Z,59.33
2018-09-11T03:12:03.230Z,59.39
2018-09-11T03:13:03.351Z,59.41
2018-09-11T03:14:03.459Z,59.38
2018-09-11T03:15:03.436Z,59.38
2018-09-11T03:16:03.289Z,59.36
2018-09-11T03:17:03.472Z,59.35
2018-09-11T03:18:03.304Z,59.39
2018-09-11T03:19:03.331Z,59.39
2018-09-11T03:20:03.282Z,59.39
2018-09-11T03:21:03.421Z,59.34
2018-09-11T03:22:03.491Z,59.39
2018-09-11T03:23:03.583Z,59.39
2018-09-11T03:24:03.517Z,59.34
2018-09-11T03:25:03.379Z,59.39
2018-09-11T03:26:03.414Z,59.35
2018-09-11T03:27:03.323Z,59.35
2018-09-11T03:28:03.363Z,59.36
2018-09-11T03:29:03.224Z,59.38
2018-09-11T03:30:03.276Z,59.41
2018-09-11T03:31:03.646Z,59.37
2018-09-11T03:32:03.782Z,59.31
2018-09-11T03:33:03.384Z,59.39
2018-09-11T03:34:03.678Z,59.41
2018-09-11T03:35:03.304Z,59.43
2018-09-11T03:36:03.381Z,59.41
2018-09-11T03:37:03.426Z,59.37
2018-09-11T03:38:03.342Z,59.42
2018-09-11T03:39:03.498Z,59.37
2018-09-11T03:40:03.542Z,59.37
2018-09-11T03:41:03.235Z,59.42
2018-09-11T03:42:03.312Z,59.41
2018-09-11T03:43:03.304Z,59.41
2018-09-11T03:44:03.928Z,59.37
2018-09-11T03:45:03.394Z,59.37
2018-09-11T03:46:03.394Z,59.37
2018-09-11T03:47:03.578Z,59.37
2018-09-11T03:48:03.570Z,59.35
2018-09-11T03:49:03.486Z,59.36
2018-09-11T03:50:03.443Z,59.37
2018-09-11T03:51:03.456Z,59.35
2018-09-11T03:52:03.248Z,59.37
2018-09-11T03:53:03.367Z,59.34
2018-09-11T03:54:03.386Z,59.36
2018-09-11T03:55:03.341Z,59.37
2018-09-11T03:56:03.359Z,59.36
2018-09-11T03:57:03.330Z,59.34
2018-09-11T03:58:03.510Z,59.39
2018-09-11T03:59:03.859Z,59.4
2018-09-11T04:00:03.377Z,59.35
2018-09-11T04:01:03.307Z,59.37
2018-09-11T04:02:03.809Z,59.38
2018-09-11T04:03:03.510Z,59.35
2018-09-11T04:04:03.356Z,59.36
2018-09-11T04:05:03.326Z,59.36
2018-09-11T04:06:03.669Z,59.38
2018-09-11T04:07:03.361Z,59.39
2018-09-11T04:08:03.422Z,59.36
2018-09-11T04:09:03.439Z,59.37
2018-09-11T04:10:03.395Z,59.4
2018-09-11T04:11:03.266Z,59.37
2018-09-11T04:12:03.499Z,59.37
2018-09-11T04:13:03.170Z,59.38
2018-09-11T04:14:03.333Z,59.37
2018-09-11T04:15:03.248Z,59.35
2018-09-11T04:16:03.248Z,59.33
2018-09-11T04:17:03.515Z,59.35
2018-09-11T04:18:03.371Z,59.38
2018-09-11T04:19:03.291Z,59.37
2018-09-11T04:20:03.388Z,59.37
2018-09-11T04:21:03.204Z,59.37
2018-09-11T04:22:03.489Z,59.33
2018-09-11T04:23:03.312Z,59.36
2018-09-11T04:24:03.438Z,59.33
2018-09-11T04:25:03.438Z,59.42
2018-09-11T04:26:03.353Z,59.37
2018-09-11T04:27:03.302Z,59.38
2018-09-11T04:28:03.480Z,59.42
2018-09-11T04:29:03.302Z,59.38
2018-09-11T04:30:03.569Z,59.41
2018-09-11T04:31:03.356Z,59.45
2018-09-11T04:32:03.430Z,59.43
2018-09-11T04:33:03.448Z,59.43
2018-09-11T04:34:03.392Z,59.44
2018-09-11T04:35:03.379Z,59.39
2018-09-11T04:36:03.604Z,59.37
2018-09-11T04:37:03.276Z,59.37
2018-09-11T04:38:03.181Z,59.37
2018-09-11T04:39:03.311Z,59.38
2018-09-11T04:40:03.703Z,59.42
2018-09-11T04:41:03.460Z,59.37
2018-09-11T04:42:03.240Z,59.37
2018-09-11T04:43:04.476Z,59.37
2018-09-11T04:44:03.345Z,59.39
2018-09-11T04:45:03.435Z,59.43
2018-09-11T04:46:03.413Z,59.41
2018-09-11T04:47:03.444Z,59.37
2018-09-11T04:48:03.525Z,59.37
2018-09-11T04:49:03.369Z,59.4
2018-09-11T04:50:03.472Z,59.39
2018-09-11T04:51:03.197Z,59.39
2018-09-11T04:52:03.376Z,59.38
2018-09-11T04:53:03.263Z,59.34
2018-09-11T04:54:03.303Z,59.38
2018-09-11T04:55:03.584Z,59.42
2018-09-11T04:56:03.868Z,59.42
2018-09-11T04:57:03.209Z,59.39
2018-09-11T04:58:03.355Z,59.43
2018-09-11T04:59:03.326Z,59.4
2018-09-11T05:00:03.374Z,59.38
2018-09-11T05:01:03.244Z,59.43
2018-09-11T05:02:03.172Z,59.4
2018-09-11T05:03:03.192Z,59.38
2018-09-11T05:04:03.368Z,59.38
2018-09-11T05:05:03.522Z,59.38
2018-09-11T05:06:03.346Z,59.4
2018-09-11T05:07:03.466Z,59.42
2018-09-11T05:08:03.263Z,59.39
2018-09-11T05:09:03.398Z,59.41
2018-09-11T05:10:03.386Z,59.42
2018-09-11T05:11:03.230Z,59.37
2018-09-11T05:12:03.369Z,59.4
2018-09-11T05:13:03.227Z,59.39
2018-09-11T05:14:03.501Z,59.42
2018-09-11T05:15:03.642Z,59.41
2018-09-11T05:16:03.372Z,59.43
2018-09-11T05:17:03.408Z,59.43
2018-09-11T05:18:03.497Z,59.37
2018-09-11T05:19:03.902Z,59.43
2018-09-11T05:20:03.385Z,59.44
2018-09-11T05:21:03.353Z,59.41
2018-09-11T05:22:03.445Z,59.43
2018-09-11T05:23:03.385Z,59.41
2018-09-11T05:24:03.536Z,59.39
2018-09-11T05:25:03.501Z,59.43
2018-09-11T05:26:03.405Z,59.41
2018-09-11T05:27:03.292Z,59.37
2018-09-11T05:28:03.633Z,59.44
2018-09-11T05:29:03.806Z,59.43
2018-09-11T05:30:03.264Z,59.44
2018-09-11T05:31:03.519Z,59.43
2018-09-11T05:32:03.128Z,59.41
2018-09-11T05:33:03.442Z,59.44
2018-09-11T05:34:03.427Z,59.44
2018-09-11T05:35:03.378Z,59.42
2018-09-11T05:36:03.483Z,59.44
2018-09-11T05:37:03.489Z,59.39
2018-09-11T05:38:03.408Z,59.41
2018-09-11T05:39:03.944Z,59.42
2018-09-11T05:40:03.280Z,59.42
2018-09-11T05:41:03.324Z,59.43
2018-09-11T05:42:03.333Z,59.41
2018-09-11T05:43:03.456Z,59.39
2018-09-11T05:44:03.266Z,59.43
2018-09-11T05:45:03.716Z,59.41
2018-09-11T05:46:03.206Z,59.43
2018-09-11T05:47:03.727Z,59.39
2018-09-11T05:48:03.384Z,59.44
2018-09-11T05:49:03.248Z,59.39
2018-09-11T05:50:03.400Z,59.38
2018-09-11T05:51:03.443Z,59.43
2018-09-11T05:52:03.304Z,59.43
2018-09-11T05:53:03.307Z,59.42
2018-09-11T05:54:03.160Z,59.4
2018-09-11T05:55:03.597Z,59.4
2018-09-11T05:56:03.409Z,59.41
2018-09-11T05:57:03.243Z,59.42
2018-09-11T05:58:03.406Z,58.99
2018-09-11T05:59:03.415Z,59.1
2018-09-11T06:00:03.383Z,59.24
2018-09-11T06:01:04.836Z,59.47
2018-09-11T06:02:03.252Z,59.94
2018-09-11T06:03:03.346Z,60.09
2018-09-11T06:04:03.535Z,60.23
2018-09-11T06:05:03.360Z,60.33
2018-09-11T06:06:03.450Z,60.45
2018-09-11T06:07:03.555Z,60.5
2018-09-11T06:08:03.204Z,60.69
2018-09-11T06:09:03.258Z,60.52
2018-09-11T06:10:03.296Z,60.65
2018-09-11T06:11:03.381Z,60.7
2018-09-11T06:12:03.491Z,60.7
2018-09-11T06:13:03.573Z,60.97
2018-09-11T06:14:03.431Z,60.94
2018-09-11T06:15:03.455Z,60.95
2018-09-11T06:16:03.182Z,61.05
2018-09-11T06:17:03.502Z,60.96
2018-09-11T06:18:03.386Z,61.05
2018-09-11T06:19:03.407Z,61.19
2018-09-11T06:20:03.200Z,61.22
2018-09-11T06:21:03.248Z,61.3
2018-09-11T06:22:03.272Z,61.44
2018-09-11T06:23:03.375Z,61.46
2018-09-11T06:24:03.094Z,61.52
2018-09-11T06:25:03.641Z,61.54
2018-09-11T06:26:03.372Z,61.5
2018-09-11T06:27:03.258Z,61.44
2018-09-11T06:28:03.263Z,61.24
2018-09-11T06:29:03.953Z,61.08
2018-09-11T06:30:03.275Z,60.85
2018-09-11T06:31:03.255Z,60.68
2018-09-11T06:32:03.340Z,60.7
2018-09-11T06:33:03.271Z,60.68
2018-09-11T06:34:03.307Z,60.71
2018-09-11T06:35:03.313Z,60.87
2018-09-11T06:36:03.115Z,60.93
2018-09-11T06:37:03.353Z,60.94
2018-09-11T06:38:03.327Z,60.92
2018-09-11T06:39:03.268Z,60.86
2018-09-11T06:40:03.341Z,60.89
2018-09-11T06:41:03.956Z,60.86
2018-09-11T06:42:03.327Z,60.77
2018-09-11T06:43:03.749Z,60.67
2018-09-11T06:44:03.440Z,60.57
2018-09-11T06:45:03.287Z,60.53
2018-09-11T06:46:03.487Z,60.46
2018-09-11T06:47:03.903Z,60.4
2018-09-11T06:48:03.395Z,60.37
2018-09-11T06:49:03.509Z,60.31
2018-09-11T06:50:03.309Z,60.3
2018-09-11T06:51:03.178Z,60.35
2018-09-11T06:52:03.232Z,60.24
2018-09-11T06:53:03.408Z,60.3
2018-09-11T06:54:03.490Z,60.25
2018-09-11T06:55:03.508Z,60.2
2018-09-11T06:56:03.412Z,60.19
2018-09-11T06:57:03.365Z,60.17
2018-09-11T06:58:03.315Z,60.18
2018-09-11T06:59:04.298Z,60.12
2018-09-11T07:00:03.231Z,60.1
2018-09-11T07:01:03.259Z,60.08
2018-09-11T07:02:03.983Z,60.05
2018-09-11T07:03:03.670Z,60.01
2018-09-11T07:04:03.450Z,60.01
2018-09-11T07:05:03.372Z,60.05
2018-09-11T07:06:03.188Z,59.97
2018-09-11T07:07:03.494Z,60
2018-09-11T07:08:03.283Z,60.04
2018-09-11T07:09:03.297Z,60.03
2018-09-11T07:10:03.221Z,59.96
2018-09-11T07:11:03.199Z,59.96
2018-09-11T07:12:03.227Z,59.93
2018-09-11T07:13:03.358Z,59.93
2018-09-11T07:14:03.428Z,59.91
2018-09-11T07:15:03.226Z,59.9
2018-09-11T07:16:03.362Z,59.96
2018-09-11T07:17:03.403Z,59.98
2018-09-11T07:18:03.221Z,59.98
2018-09-11T07:19:03.462Z,59.94
2018-09-11T07:20:06.053Z,59.86
2018-09-11T07:21:03.315Z,59.86
2018-09-11T07:22:03.296Z,59.93
2018-09-11T07:23:03.350Z,59.86
2018-09-11T07:24:03.370Z,59.9
2018-09-11T07:25:03.298Z,59.93
2018-09-11T07:26:03.935Z,59.94
2018-09-11T07:27:03.394Z,59.95
2018-09-11T07:28:03.342Z,59.92
2018-09-11T07:29:03.322Z,59.88
2018-09-11T07:30:03.906Z,59.88
2018-09-11T07:31:03.438Z,59.87
2018-09-11T07:32:03.086Z,59.82
2018-09-11T07:33:04.244Z,59.82
2018-09-11T07:34:03.322Z,59.87
2018-09-11T07:35:03.341Z,59.92
2018-09-11T07:36:03.292Z,59.84
2018-09-11T07:37:03.212Z,59.82
2018-09-11T07:38:03.333Z,59.86
2018-09-11T07:39:03.448Z,59.81
2018-09-11T07:40:03.318Z,59.72
2018-09-11T07:41:03.261Z,59.75
2018-09-11T07:42:03.205Z,59.83
2018-09-11T07:43:03.214Z,59.81
2018-09-11T07:44:03.126Z,59.81
2018-09-11T07:45:03.357Z,59.77
2018-09-11T07:46:03.281Z,59.77
2018-09-11T07:47:03.334Z,59.72
2018-09-11T07:48:03.287Z,59.8
2018-09-11T07:49:03.128Z,59.73
2018-09-11T07:50:03.125Z,59.71
2018-09-11T07:51:03.230Z,59.82
2018-09-11T07:52:03.275Z,59.81
2018-09-11T07:53:04.133Z,59.8
2018-09-11T07:54:03.269Z,59.75
2018-09-11T07:55:03.324Z,59.73
2018-09-11T07:56:03.321Z,59.75
2018-09-11T07:57:03.416Z,59.78
2018-09-11T07:58:04.132Z,59.73
2018-09-11T07:59:03.353Z,59.66
2018-09-11T08:00:03.434Z,59.61
2018-09-11T08:01:03.264Z,59.63
2018-09-11T08:02:03.273Z,59.66
2018-09-11T08:03:03.914Z,59.66
2018-09-11T08:04:03.315Z,59.76
2018-09-11T08:05:03.786Z,59.69
2018-09-11T08:06:03.272Z,59.69
2018-09-11T08:07:03.119Z,59.69
2018-09-11T08:08:03.406Z,59.66
2018-09-11T08:09:03.546Z,59.66
2018-09-11T08:10:03.035Z,59.69
2018-09-11T08:11:03.136Z,59.67
2018-09-11T08:12:04.253Z,59.63
2018-09-11T08:13:03.557Z,59.66
2018-09-11T08:14:03.225Z,59.64
2018-09-11T08:15:03.797Z,59.64
2018-09-11T08:16:03.333Z,59.64
2018-09-11T08:17:03.254Z,59.66
2018-09-11T08:18:03.710Z,59.62
2018-09-11T08:19:03.390Z,59.58
2018-09-11T08:20:03.309Z,59.62
2018-09-11T08:21:03.539Z,59.64
2018-09-11T08:22:03.307Z,59.68
2018-09-11T08:23:03.672Z,59.64
2018-09-11T08:24:03.324Z,59.64
2018-09-11T08:25:03.394Z,59.67
2018-09-11T08:26:03.049Z,59.64
2018-09-11T08:27:03.201Z,59.6
2018-09-11T08:28:03.342Z,59.61
2018-09-11T08:29:03.253Z,59.64
2018-09-11T08:30:03.571Z,59.61
2018-09-11T08:31:03.493Z,59.66
2018-09-11T08:32:03.414Z,59.65
2018-09-11T08:33:03.347Z,59.67
2018-09-11T08:34:03.436Z,59.64
2018-09-11T08:35:03.144Z,59.66
2018-09-11T08:36:03.446Z,59.67
2018-09-11T08:37:03.218Z,59.66
2018-09-11T08:38:03.514Z,59.63
2018-09-11T08:39:03.463Z,59.65
2018-09-11T08:40:03.247Z,59.67
2018-09-11T08:41:04.002Z,59.7
2018-09-11T08:42:03.562Z,59.66
2018-09-11T08:43:03.318Z,59.68
2018-09-11T08:44:03.241Z,59.67
2018-09-11T08:45:03.267Z,59.67
2018-09-11T08:46:03.119Z,59.63
2018-09-11T08:47:03.275Z,59.62
2018-09-11T08:48:03.300Z,59.62
2018-09-11T08:49:03.484Z,59.63
2018-09-11T08:50:03.425Z,59.61
2018-09-11T08:51:03.219Z,59.66
2018-09-11T08:52:03.754Z,59.61
2018-09-11T08:53:03.344Z,59.74
2018-09-11T08:54:03.317Z,59.67
2018-09-11T08:55:03.323Z,59.69
2018-09-11T08:56:03.170Z,59.62
2018-09-11T08:57:03.370Z,59.66
2018-09-11T08:58:03.359Z,59.7
2018-09-11T08:59:03.426Z,59.66
2018-09-11T09:00:03.251Z,59.7
2018-09-11T09:01:03.318Z,59.72
2018-09-11T09:02:03.269Z,59.64
2018-09-11T09:03:03.149Z,59.7
2018-09-11T09:04:03.324Z,59.83
2018-09-11T09:05:03.506Z,59.73
2018-09-11T09:06:03.226Z,59.72
2018-09-11T09:07:03.138Z,59.8
2018-09-11T09:08:03.284Z,59.85
2018-09-11T09:09:03.275Z,59.9
2018-09-11T09:10:03.807Z,59.92
2018-09-11T09:11:03.254Z,59.91
2018-09-11T09:12:03.153Z,59.89
2018-09-11T09:13:03.335Z,59.82
2018-09-11T09:14:03.384Z,59.88
2018-09-11T09:15:03.306Z,59.9
2018-09-11T09:16:03.318Z,59.88
2018-09-11T09:17:03.317Z,59.77
2018-09-11T09:18:03.303Z,59.77
2018-09-11T09:19:03.225Z,59.79
2018-09-11T09:20:03.250Z,59.74
2018-09-11T09:21:04.221Z,59.76
2018-09-11T09:22:03.325Z,59.75
2018-09-11T09:23:03.603Z,59.76
2018-09-11T09:24:03.361Z,59.77
2018-09-11T09:25:03.348Z,59.75
2018-09-11T09:26:03.605Z,59.74
2018-09-11T09:27:03.923Z,59.76
2018-09-11T09:28:03.509Z,59.8
2018-09-11T09:29:03.349Z,59.78
2018-09-11T09:30:03.940Z,59.81
2018-09-11T09:31:03.375Z,59.89
2018-09-11T09:32:03.572Z,59.81
2018-09-11T09:33:03.317Z,59.8
2018-09-11T09:34:03.616Z,59.82
2018-09-11T09:35:03.262Z,59.82
2018-09-11T09:36:03.319Z,59.84
2018-09-11T09:37:04.090Z,59.8
2018-09-11T09:38:03.186Z,59.79
2018-09-11T09:39:03.189Z,59.78
2018-09-11T09:40:03.208Z,59.77
2018-09-11T09:41:03.196Z,59.7
2018-09-11T09:42:03.241Z,59.69
2018-09-11T09:43:03.312Z,59.7
2018-09-11T09:44:04.530Z,59.7
2018-09-11T09:45:03.453Z,59.71
2018-09-11T09:46:03.163Z,59.71
2018-09-11T09:47:03.355Z,59.75
2018-09-11T09:48:03.223Z,59.69
2018-09-11T09:49:03.622Z,59.72
2018-09-11T09:50:03.589Z,59.7
2018-09-11T09:51:03.434Z,59.71
2018-09-11T09:52:03.438Z,59.72
2018-09-11T09:53:03.448Z,59.74
2018-09-11T09:54:03.394Z,59.69
2018-09-11T09:55:03.331Z,59.73
2018-09-11T09:56:03.384Z,59.72
2018-09-11T09:57:03.090Z,59.7
2018-09-11T09:58:03.732Z,59.75
2018-09-11T09:59:03.335Z,59.75
2018-09-11T10:00:03.463Z,59.79
2018-09-11T10:01:03.510Z,59.72
2018-09-11T10:02:03.340Z,59.72
2018-09-11T10:03:03.444Z,59.69
2018-09-11T10:04:03.172Z,59.68
2018-09-11T10:05:03.258Z,59.71
2018-09-11T10:06:03.276Z,59.68
2018-09-11T10:07:03.340Z,59.69
2018-09-11T10:08:03.330Z,59.7
2018-09-11T10:09:03.251Z,59.67
2018-09-11T10:10:03.044Z,59.69
2018-09-11T10:11:03.401Z,59.73
2018-09-11T10:12:03.258Z,59.68
2018-09-11T10:13:04.092Z,59.62
2018-09-11T10:14:03.201Z,59.65
2018-09-11T10:15:03.310Z,59.65
2018-09-11T10:16:03.091Z,59.58
2018-09-11T10:17:03.349Z,59.65
2018-09-11T10:18:03.334Z,59.67
2018-09-11T10:19:03.147Z,59.68
2018-09-11T10:20:03.550Z,59.64
2018-09-11T10:21:03.502Z,59.67
2018-09-11T10:22:03.204Z,59.64
2018-09-11T10:23:03.338Z,59.61
2018-09-11T10:24:03.225Z,59.63
2018-09-11T10:25:03.365Z,59.6
2018-09-11T10:26:03.265Z,59.66
2018-09-11T10:27:03.315Z,59.61
2018-09-11T10:28:03.242Z,59.6
2018-09-11T10:29:03.336Z,59.65
2018-09-11T10:30:03.373Z,59.63
2018-09-11T10:31:03.136Z,59.61
2018-09-11T10:32:03.325Z,59.6
2018-09-11T10:33:03.722Z,59.63
2018-09-11T10:34:03.170Z,59.59
2018-09-11T10:35:03.239Z,59.55
2018-09-11T10:36:03.392Z,59.57
2018-09-11T10:37:03.273Z,59.55
2018-09-11T10:38:03.190Z,59.59
2018-09-11T10:39:03.186Z,59.53
2018-09-11T10:40:03.235Z,59.54
2018-09-11T10:41:03.043Z,59.49
2018-09-11T10:42:03.159Z,59.52
2018-09-11T10:43:03.275Z,59.55
2018-09-11T10:44:03.347Z,59.59
2018-09-11T10:45:04.396Z,59.53
2018-09-11T10:46:03.112Z,59.49
2018-09-11T10:47:03.427Z,59.5
2018-09-11T10:48:03.342Z,59.51
2018-09-11T10:49:03.364Z,59.52
2018-09-11T10:50:03.123Z,59.53
2018-09-11T10:51:03.340Z,59.55
2018-09-11T10:52:03.135Z,59.55
2018-09-11T10:53:03.138Z,59.51
2018-09-11T10:54:03.409Z,59.54
2018-09-11T10:55:03.255Z,59.55
2018-09-11T10:56:03.545Z,59.6
2018-09-11T10:57:03.343Z,59.57
2018-09-11T10:58:03.436Z,59.55
2018-09-11T10:59:03.404Z,59.55
2018-09-11T11:00:03.088Z,59.51
2018-09-11T11:01:03.437Z,59.53
2018-09-11T11:02:03.301Z,59.57
2018-09-11T11:03:03.277Z,59.55
2018-09-11T11:04:03.192Z,59.54
2018-09-11T11:05:03.263Z,59.54
2018-09-11T11:06:03.148Z,59.54
2018-09-11T11:07:03.220Z,59.54
2018-09-11T11:08:03.240Z,59.55
2018-09-11T11:09:03.237Z,59.56
2018-09-11T11:10:03.769Z,59.54
2018-09-11T11:11:03.047Z,59.55
2018-09-11T11:12:03.228Z,59.53
2018-09-11T11:13:03.221Z,59.53
2018-09-11T11:14:03.419Z,59.53
2018-09-11T11:15:04.298Z,59.53
2018-09-11T11:16:03.199Z,59.55
2018-09-11T11:17:03.861Z,59.55
2018-09-11T11:18:03.128Z,59.55
2018-09-11T11:19:03.263Z,59.56
2018-09-11T11:20:03.253Z,59.47
2018-09-11T11:21:03.270Z,59.51
2018-09-11T11:22:03.386Z,59.56
2018-09-11T11:23:03.321Z,59.57
2018-09-11T11:24:03.279Z,59.54
2018-09-11T11:25:03.285Z,59.52
2018-09-11T11:26:03.413Z,59.58
2018-09-11T11:27:04.070Z,59.54
2018-09-11T11:28:03.255Z,59.52
2018-09-11T11:29:03.359Z,59.57
2018-09-11T11:30:03.245Z,59.53
2018-09-11T11:31:03.348Z,59.56
2018-09-11T11:32:03.292Z,59.56
2018-09-11T11:33:03.398Z,59.53
2018-09-11T11:34:03.453Z,59.49
2018-09-11T11:35:03.324Z,59.48
2018-09-11T11:36:04.046Z,59.47
2018-09-11T11:37:04.571Z,59.47
2018-09-11T11:38:03.504Z,59.41
2018-09-11T11:39:03.216Z,59.39
2018-09-11T11:40:03.128Z,59.35
2018-09-11T11:41:03.314Z,59.4
2018-09-11T11:42:03.331Z,59.37
2018-09-11T11:43:03.393Z,59.39
2018-09-11T11:44:03.258Z,59.4
2018-09-11T11:45:03.201Z,59.4
2018-09-11T11:46:03.227Z,59.36
2018-09-11T11:47:03.283Z,59.37
2018-09-11T11:48:03.445Z,59.39
2018-09-11T11:49:03.364Z,59.4
2018-09-11T11:50:03.368Z,59.37
2018-09-11T11:51:03.082Z,59.37
2018-09-11T11:52:03.330Z,59.39
2018-09-11T11:53:03.405Z,59.44
2018-09-11T11:54:03.199Z,59.44
2018-09-11T11:55:04.364Z,59.45
2018-09-11T11:56:03.101Z,59.49
2018-09-11T11:57:03.540Z,59.5
2018-09-11T11:58:03.304Z,59.51
2018-09-11T11:59:03.247Z,59.41
2018-09-11T12:00:03.203Z,59.45
2018-09-11T12:01:03.230Z,59.41
2018-09-11T12:02:04.283Z,59.41
2018-09-11T12:03:03.147Z,59.43
2018-09-11T12:04:03.419Z,59.48
2018-09-11T12:05:03.427Z,59.5
2018-09-11T12:06:03.162Z,59.46
2018-09-11T12:07:03.192Z,59.46
2018-09-11T12:08:03.202Z,59.5
2018-09-11T12:09:03.259Z,59.47
2018-09-11T12:10:03.271Z,59.46
2018-09-11T12:11:03.146Z,59.42
2018-09-11T12:12:03.402Z,59.43
2018-09-11T12:13:03.524Z,59.49
2018-09-11T12:14:03.136Z,59.48
2018-09-11T12:15:03.401Z,59.48
2018-09-11T12:16:03.594Z,59.49
2018-09-11T12:17:04.147Z,59.43
2018-09-11T12:18:03.361Z,59.5
2018-09-11T12:19:03.381Z,59.49
2018-09-11T12:20:03.162Z,59.53
2018-09-11T12:21:03.303Z,59.52
2018-09-11T12:22:03.424Z,59.49
2018-09-11T12:23:03.368Z,59.5
2018-09-11T12:24:03.616Z,59.52
2018-09-11T12:25:03.121Z,59.53
2018-09-11T12:26:03.239Z,59.56
2018-09-11T12:27:03.317Z,59.55
2018-09-11T12:28:03.304Z,59.55
2018-09-11T12:29:03.267Z,59.52
2018-09-11T12:30:03.344Z,59.56
2018-09-11T12:31:03.788Z,59.59
2018-09-11T12:32:03.203Z,59.58
2018-09-11T12:33:03.002Z,59.53
2018-09-11T12:34:03.258Z,59.58
2018-09-11T12:35:03.856Z,59.63
2018-09-11T12:36:03.285Z,59.53
2018-09-11T12:37:03.230Z,59.57
2018-09-11T12:38:03.219Z,59.56
2018-09-11T12:39:03.149Z,59.55
2018-09-11T12:40:03.387Z,59.6
2018-09-11T12:41:03.345Z,59.6
2018-09-11T12:42:03.313Z,59.55
2018-09-11T12:43:03.189Z,59.57
2018-09-11T12:44:03.189Z,59.56
2018-09-11T12:45:03.237Z,59.59
2018-09-11T12:46:05.933Z,59.58
2018-09-11T12:47:05.867Z,59.54
2018-09-11T12:48:09.111Z,59.56
2018-09-11T12:49:03.487Z,59.56
2018-09-11T12:50:03.443Z,59.58
2018-09-11T12:51:03.445Z,59.53
2018-09-11T12:52:03.096Z,59.56
2018-09-11T12:53:03.096Z,59.59
2018-09-11T12:54:03.625Z,59.55
2018-09-11T12:55:03.511Z,59.61